createdAt,value
2022-08-07T00:07:20.815Z,19.5
2022-08-07T00:22:40.550Z,19.4
2022-08-07T00:30:48.664Z,19.3
2022-08-07T01:09:36.131Z,19.1
2022-08-07T01:24:55.756Z,19.1
2022-08-07T01:48:12.168Z,19.1
2022-08-07T01:56:08.946Z,19.1
2022-08-07T02:27:10.825Z,19.1
2022-08-07T02:34:56.316Z,19
2022-08-07T03:13:21.271Z,18.8
2022-08-07T03:21:06.795Z,18.8
2022-08-07T03:52:08.810Z,18.7
2022-08-07T04:07:51.114Z,18.7
2022-08-07T04:31:18.852Z,18.7
2022-08-07T04:54:35.333Z,18.7
2022-08-07T05:17:51.788Z,18.8
2022-08-07T05:33:02.312Z,18.8
2022-08-07T05:56:39.153Z,18.9
2022-08-07T06:19:44.228Z,18.9
2022-08-07T06:35:15.146Z,19
2022-08-07T06:50:34.776Z,19
2022-08-07T07:21:59.195Z,19.1
2022-08-07T07:44:52.882Z,19.2
2022-08-07T07:52:49.606Z,19.2
2022-08-07T08:16:05.683Z,19.5
2022-08-07T08:47:07.639Z,20.1
2022-08-07T08:54:52.207Z,20.3
2022-08-07T09:18:19.361Z,20.7
2022-08-07T09:33:27.264Z,21
2022-08-07T10:04:39.479Z,21.6
2022-08-07T10:27:43.658Z,22.2
2022-08-07T10:35:28.826Z,22.4
2022-08-07T11:06:40.635Z,23.2
2022-08-07T11:29:55.862Z,23.9
2022-08-07T11:45:14.682Z,24.3
2022-08-07T12:00:56.076Z,24.8
2022-08-07T12:16:37.560Z,25.1
2022-08-07T12:31:45.231Z,25.2
2022-08-07T12:47:15.451Z,25.3
2022-08-07T13:10:30.642Z,25.6
2022-08-07T13:26:00.722Z,25.8
2022-08-07T13:49:14.079Z,28.1
2022-08-07T14:12:37.994Z,31.4
2022-08-07T14:27:55.121Z,33
2022-08-07T14:59:03.231Z,35.5
2022-08-07T15:14:20.337Z,36.6
2022-08-07T15:22:15.938Z,37
2022-08-07T15:45:28.979Z,37.7
2022-08-07T16:16:26.955Z,37.9
2022-08-07T16:32:07.512Z,37.8
2022-08-07T17:02:43.858Z,37.1
2022-08-07T17:10:39.951Z,36.9
2022-08-07T17:26:09.579Z,36.4
2022-08-07T17:49:39.348Z,35.7
2022-08-07T18:12:27.633Z,34.7
2022-08-07T18:28:09.084Z,33.9
2022-08-07T18:51:13.284Z,32.4
2022-08-07T19:14:28.978Z,30.9
2022-08-07T19:30:10.802Z,30
2022-08-07T20:08:45.974Z,27.9
2022-08-07T20:24:39.287Z,27.1
2022-08-07T20:39:47.485Z,26.4
2022-08-07T20:55:40.772Z,25.7
2022-08-07T21:26:19.776Z,24.5
2022-08-07T22:05:06.887Z,23.2
2022-08-07T22:21:00.376Z,22.8
2022-08-07T22:51:50.863Z,22.1
2022-08-07T23:07:33.122Z,21.7
2022-08-07T23:53:43.471Z,20.9
